Time;durP1;ratioP1;P1;durP2;ratioP2;P2;SDS_P1;SDS_P2;PMS_P1;PMS_P2;Temp;Humidity;BMP_temperature;BMP_pressure;BME280_temperature;BME280_humidity;BME280_pressure;Samples;Min_cycle;Max_cycle;Signal;HPM_P1;HPM_P2
2022/08/01 00:00:25;;;;;;;8.18;3.13;;;;;;;-143.85;100.00;70650.75;5094675;28;20012;-83
2022/08/01 00:02:50;;;;;;;3.35;3.05;;;;;;;-143.85;100.00;70650.75;5094286;28;20028;-83
2022/08/01 00:05:16;;;;;;;4.15;3.17;;;;;;;-143.85;100.00;70650.75;5094347;28;20081;-83
2022/08/01 00:07:41;;;;;;;5.30;3.05;;;;;;;-143.85;100.00;70650.75;5095693;28;20030;-83
2022/08/01 00:10:10;;;;;;;3.30;2.63;;;;;;;-143.85;100.00;70650.75;5095532;28;20016;-83
2022/08/01 00:12:36;;;;;;;3.67;2.78;;;;;;;-143.85;100.00;70650.75;5095673;28;20349;-83
2022/08/01 00:15:02;;;;;;;5.70;3.40;;;;;;;-143.85;100.00;70650.75;5094219;28;20027;-82
2022/08/01 00:17:28;;;;;;;4.15;3.15;;;;;;;-143.85;100.00;70650.75;5094096;28;20114;-83
2022/08/01 00:19:53;;;;;;;4.75;3.53;;;;;;;-143.85;100.00;70650.75;5094026;28;20153;-83
2022/08/01 00:22:18;;;;;;;2.95;2.50;;;;;;;-143.85;100.00;70650.75;5094127;28;20016;-83
2022/08/01 00:24:44;;;;;;;4.32;3.17;;;;;;;-143.85;100.00;70650.75;5094037;28;20020;-83
2022/08/01 00:27:09;;;;;;;5.75;3.10;;;;;;;-143.85;100.00;70650.75;5093995;28;20027;-83
2022/08/01 00:29:35;;;;;;;3.97;3.25;;;;;;;-143.85;100.00;70650.75;5093940;28;20020;-83
2022/08/01 00:32:00;;;;;;;3.22;2.92;;;;;;;-143.85;100.00;70650.75;5094021;28;20439;-84
2022/08/01 00:34:25;;;;;;;3.08;2.72;;;;;;;-143.85;100.00;70650.75;5094036;28;20444;-85
2022/08/01 00:36:51;;;;;;;4.63;3.30;;;;;;;-143.85;100.00;70650.75;5095084;28;20028;-85
2022/08/01 00:39:16;;;;;;;4.18;3.22;;;;;;;-143.85;100.00;70650.75;5094156;28;20028;-83
2022/08/01 00:41:42;;;;;;;5.20;3.13;;;;;;;-143.85;100.00;70650.75;5093883;28;20455;-85
2022/08/01 00:44:07;;;;;;;4.55;3.20;;;;;;;-143.85;100.00;70650.75;5093846;28;20031;-83
2022/08/01 00:46:33;;;;;;;4.50;3.50;;;;;;;-143.85;100.00;70650.75;5094921;28;20056;-83
2022/08/01 00:48:59;;;;;;;3.60;3.00;;;;;;;-143.85;100.00;70650.75;5093503;28;20115;-83
2022/08/01 00:51:26;;;;;;;4.03;3.63;;;;;;;-143.85;100.00;70650.75;5093956;28;20129;-84
2022/08/01 00:53:52;;;;;;;3.47;3.15;;;;;;;-143.85;100.00;70650.75;5093824;28;20429;-84
2022/08/01 00:56:20;;;;;;;3.40;2.75;;;;;;;-143.85;100.00;70650.75;5094765;28;20455;-84
2022/08/01 00:58:46;;;;;;;3.20;2.60;;;;;;;-143.85;100.00;70650.75;5093441;28;20028;-84
2022/08/01 01:01:11;;;;;;;4.22;2.80;;;;;;;-143.85;100.00;70650.75;5093297;28;20436;-83
2022/08/01 01:03:37;;;;;;;5.18;3.05;;;;;;;-143.85;100.00;70650.75;5093700;28;20027;-83
2022/08/01 01:06:23;;;;;;;2.85;2.60;;;;;;;-143.85;100.00;70650.75;5093549;28;20387;-85
2022/08/01 01:09:12;;;;;;;2.38;2.17;;;;;;;-143.85;100.00;70650.75;5093741;28;20027;-84
2022/08/01 01:12:32;;;;;;;3.20;2.90;;;;;;;-143.85;100.00;70650.75;5094535;28;20020;-84
2022/08/01 01:15:04;;;;;;;4.20;2.90;;;;;;;-143.85;100.00;70650.75;5029009;28;20032;-84
2022/08/01 01:17:51;;;;;;;3.72;2.50;;;;;;;-143.85;100.00;70650.75;5093227;28;20035;-84
2022/08/01 01:20:18;;;;;;;6.90;2.90;;;;;;;-143.85;100.00;70650.75;5093342;28;20077;-83
2022/08/01 01:22:53;;;;;;;4.07;2.93;;;;;;;-143.85;100.00;70650.75;5093063;28;20123;-86
2022/08/01 01:25:37;;;;;;;3.45;2.83;;;;;;;-143.85;100.00;70650.75;5093687;28;20028;-85
2022/08/01 01:28:26;;;;;;;3.10;2.28;;;;;;;-143.85;100.00;70650.75;5092867;28;20070;-84
2022/08/01 01:30:55;;;;;;;3.60;3.03;;;;;;;-143.85;100.00;70650.75;5093404;28;20032;-83
2022/08/01 01:33:23;;;;;;;3.20;2.90;;;;;;;-143.85;100.00;70650.75;5093275;28;20383;-84
2022/08/01 01:35:55;;;;;;;3.45;2.65;;;;;;;-143.85;100.00;70650.75;5092850;28;20525;-83
2022/08/01 01:38:23;;;;;;;5.82;3.17;;;;;;;-143.85;100.00;70650.75;5092634;28;20031;-84
2022/08/01 01:40:51;;;;;;;4.50;2.95;;;;;;;-143.85;100.00;70650.75;5092562;28;20062;-83
2022/08/01 01:43:18;;;;;;;2.90;2.38;;;;;;;-143.85;100.00;70650.75;5093759;28;20093;-84
2022/08/01 01:45:46;;;;;;;3.90;2.88;;;;;;;-143.85;100.00;70650.75;5092430;28;20032;-83
2022/08/01 01:48:17;;;;;;;;;;;;;;;-143.85;100.00;70650.75;5092517;28;20040;-84
2022/08/01 01:50:46;;;;;;;3.00;2.70;;;;;;;-143.85;100.00;70650.75;5092695;28;19912;-84
2022/08/01 01:53:15;;;;;;;3.92;3.15;;;;;;;-143.85;100.00;70650.75;5092129;28;20020;-83
2022/08/01 01:55:43;;;;;;;3.13;2.80;;;;;;;-143.85;100.00;70650.75;5093597;28;20028;-84
2022/08/01 01:58:11;;;;;;;3.72;3.10;;;;;;;-143.85;100.00;70650.75;5093785;28;20016;-84
2022/08/01 02:00:38;;;;;;;4.53;3.10;;;;;;;-143.85;100.00;70650.75;5092148;28;20091;-83
2022/08/01 02:03:07;;;;;;;3.47;3.00;;;;;;;-143.85;100.00;70650.75;5092270;28;20019;-84
2022/08/01 02:05:35;;;;;;;5.32;3.58;;;;;;;-143.85;100.00;70650.75;5092247;28;20027;-84
2022/08/01 02:08:03;;;;;;;4.93;2.90;;;;;;;-143.85;100.00;70650.75;5092121;28;20455;-84
2022/08/01 02:10:30;;;;;;;2.50;2.30;;;;;;;-143.85;100.00;70650.75;5092602;28;20107;-84
2022/08/01 02:12:59;;;;;;;3.35;2.55;;;;;;;-143.85;100.00;70650.75;5092612;28;20027;-84
2022/08/01 02:15:26;;;;;;;3.65;3.20;;;;;;;-143.85;100.00;70650.75;5093297;28;20027;-85
2022/08/01 02:17:54;;;;;;;2.38;2.15;;;;;;;-143.85;100.00;70650.75;5091508;28;20125;-84
2022/08/01 02:20:19;;;;;;;3.33;2.58;;;;;;;-143.85;100.00;70650.75;5093299;28;20028;-84
2022/08/01 02:23:15;;;;;;;3.33;3.03;;;;;;;-143.85;100.00;70650.75;5091921;28;20119;-83
2022/08/01 02:25:53;;;;;;;3.58;3.08;;;;;;;-143.85;100.00;70650.75;5071377;28;20038;-83
2022/08/01 02:28:29;;;;;;;3.78;2.60;;;;;;;-143.85;100.00;70650.75;5093315;28;20023;-84
2022/08/01 02:31:00;;;;;;;2.95;2.33;;;;;;;-143.85;100.00;70650.75;5091891;28;20399;-84
2022/08/01 02:33:34;;;;;;;3.70;2.50;;;;;;;-143.85;100.00;70650.75;5091820;28;20042;-84
2022/08/01 02:36:02;;;;;;;5.35;2.72;;;;;;;-143.85;100.00;70650.75;5093034;28;20031;-83
2022/08/01 02:38:31;;;;;;;2.63;2.42;;;;;;;-143.85;100.00;70650.75;5093052;28;20116;-83
2022/08/01 02:41:03;;;;;;;3.65;2.03;;;;;;;-143.85;100.00;70650.75;5092944;28;20024;-83
2022/08/01 02:43:33;;;;;;;2.58;2.38;;;;;;;-143.85;100.00;70650.75;5092970;28;20468;-84
2022/08/01 02:46:01;;;;;;;3.22;2.58;;;;;;;-143.85;100.00;70650.75;5091721;28;20028;-84
2022/08/01 02:48:26;;;;;;;5.45;2.42;;;;;;;-143.85;100.00;70650.75;5091425;28;20052;-84
2022/08/01 02:50:54;;;;;;;5.25;2.47;;;;;;;-143.85;100.00;70650.75;5091444;28;20514;-84
2022/08/01 02:53:23;;;;;;;2.97;2.60;;;;;;;-143.85;100.00;70650.75;5092855;28;20028;-84
2022/08/01 02:55:50;;;;;;;3.55;2.85;;;;;;;-143.85;100.00;70650.75;5091239;28;20020;-84
2022/08/01 02:58:18;;;;;;;3.65;3.20;;;;;;;-143.85;100.00;70650.75;5091513;28;20035;-83
2022/08/01 03:00:45;;;;;;;2.15;1.95;;;;;;;-143.85;100.00;70650.75;5092958;28;20024;-83
2022/08/01 03:03:12;;;;;;;3.35;1.70;;;;;;;-143.85;100.00;70650.75;5091581;28;20020;-84
2022/08/01 03:05:42;;;;;;;3.03;2.40;;;;;;;-143.85;100.00;70650.75;5091614;28;20031;-84
2022/08/01 03:08:09;;;;;;;4.22;2.72;;;;;;;-143.85;100.00;70650.75;5092552;28;20016;-83
2022/08/01 03:10:37;;;;;;;3.47;2.33;;;;;;;-143.85;100.00;70650.75;5091505;28;20464;-84
2022/08/01 03:13:06;;;;;;;2.60;2.00;;;;;;;-143.85;100.00;70650.75;5091387;28;20038;-83
2022/08/01 03:15:35;;;;;;;2.47;1.88;;;;;;;-143.85;100.00;70650.75;5091261;28;20032;-84
2022/08/01 03:18:04;;;;;;;5.32;1.95;;;;;;;-143.85;100.00;70650.75;5092647;28;20016;-84
2022/08/01 03:20:32;;;;;;;3.70;2.55;;;;;;;-143.85;100.00;70650.75;5091214;28;20020;-84
2022/08/01 03:23:01;;;;;;;3.75;2.60;;;;;;;-143.85;100.00;70650.75;5092552;28;20071;-83
2022/08/01 03:25:28;;;;;;;4.53;1.95;;;;;;;-143.85;100.00;70650.75;5091443;28;20024;-84
2022/08/01 03:27:57;;;;;;;3.10;2.22;;;;;;;-143.85;100.00;70650.75;5091495;28;20439;-83
2022/08/01 03:30:25;;;;;;;2.60;2.40;;;;;;;-143.85;100.00;70650.75;5093554;28;20032;-83
2022/08/01 03:32:51;;;;;;;3.63;1.98;;;;;;;-143.85;100.00;70650.75;5095269;28;20165;-84
2022/08/01 03:35:17;;;;;;;3.03;1.98;;;;;;;-143.85;100.00;70650.75;5096392;28;20506;-84
2022/08/01 03:37:46;;;;;;;2.33;2.13;;;;;;;-143.85;100.00;70650.75;5096340;28;20051;-84
2022/08/01 03:40:20;;;;;;;2.17;1.63;;;;;;;-143.85;100.00;70650.75;5095404;28;20035;-84
2022/08/01 03:42:54;;;;;;;5.22;2.05;;;;;;;-143.85;100.00;70650.75;5094955;28;20487;-84
2022/08/01 03:45:23;;;;;;;2.20;2.00;;;;;;;-143.85;100.00;70650.75;5095103;28;20035;-83
2022/08/01 03:47:55;;;;;;;2.83;1.75;;;;;;;-143.85;100.00;70650.75;5094679;28;20064;-83
2022/08/01 03:50:24;;;;;;;2.78;2.15;;;;;;;-143.85;100.00;70650.75;5094845;28;20111;-84
2022/08/01 03:52:51;;;;;;;1.98;1.77;;;;;;;-143.85;100.00;70650.75;5096146;28;20103;-84
2022/08/01 03:55:18;;;;;;;2.60;2.30;;;;;;;-143.85;100.00;70650.75;5094802;28;20199;-84
2022/08/01 03:57:45;;;;;;;2.90;2.00;;;;;;;-143.85;100.00;70650.75;5094722;28;20028;-83
2022/08/01 04:00:11;;;;;;;2.22;2.03;;;;;;;-143.85;100.00;70650.75;5096018;28;20024;-84
2022/08/01 04:02:37;;;;;;;2.45;1.52;;;;;;;-143.85;100.00;70650.75;5094721;28;20088;-84
2022/08/01 04:05:03;;;;;;;2.95;1.90;;;;;;;-143.85;100.00;70650.75;5094902;28;20073;-84
2022/08/01 04:07:31;;;;;;;1.80;1.35;;;;;;;-143.85;100.00;70650.75;5094597;28;20451;-85
2022/08/01 04:09:57;;;;;;;3.63;1.27;;;;;;;-143.85;100.00;70650.75;5094738;28;20369;-84
2022/08/01 04:12:22;;;;;;;1.65;1.50;;;;;;;-143.85;100.00;70650.75;5094670;28;20123;-84
2022/08/01 04:14:49;;;;;;;1.38;1.27;;;;;;;-143.85;100.00;70650.75;5094214;28;20478;-84
2022/08/01 04:17:18;;;;;;;2.58;1.60;;;;;;;-143.85;100.00;70650.75;5094472;28;20050;-84
2022/08/01 04:19:44;;;;;;;2.47;1.50;;;;;;;-143.85;100.00;70650.75;5094341;28;20024;-85
2022/08/01 04:22:12;;;;;;;2.15;1.98;;;;;;;-143.85;100.00;70650.75;5094272;28;20062;-85
2022/08/01 04:24:39;;;;;;;1.38;1.17;;;;;;;-143.85;100.00;70650.75;5094449;28;20016;-84
2022/08/01 04:27:09;;;;;;;1.63;1.52;;;;;;;-143.85;100.00;70650.75;5094314;28;20395;-84
2022/08/01 04:29:37;;;;;;;2.28;1.58;;;;;;;-143.85;100.00;70650.75;5093986;28;20069;-84
2022/08/01 04:32:03;;;;;;;1.77;1.10;;;;;;;-143.85;100.00;70650.75;5094435;28;20027;-85
2022/08/01 04:34:33;;;;;;;3.22;1.58;;;;;;;-143.85;100.00;70650.75;5095208;28;20020;-84
2022/08/01 04:37:00;;;;;;;1.48;1.38;;;;;;;-143.85;100.00;70650.75;5093781;28;20478;-83
2022/08/01 04:39:30;;;;;;;1.83;1.02;;;;;;;-143.85;100.00;70650.75;5093803;28;20472;-83
2022/08/01 04:41:59;;;;;;;3.17;1.10;;;;;;;-143.85;100.00;70650.75;5093649;28;20028;-84
2022/08/01 04:44:27;;;;;;;1.23;1.08;;;;;;;-143.85;100.00;70650.75;5094914;28;20027;-84
2022/08/01 04:46:54;;;;;;;1.37;1.17;;;;;;;-143.85;100.00;70650.75;5093627;28;20047;-84
2022/08/01 04:49:21;;;;;;;3.47;1.38;;;;;;;-143.85;100.00;70650.75;5095004;28;20089;-84
2022/08/01 04:51:57;;;;;;;1.23;1.13;;;;;;;-143.85;100.00;70650.75;5095078;28;20544;-85
2022/08/01 04:54:24;;;;;;;2.50;1.25;;;;;;;-143.85;100.00;70650.75;5095090;28;20060;-85
2022/08/01 04:56:50;;;;;;;1.92;1.08;;;;;;;-143.85;100.00;70650.75;5093442;28;20110;-83
2022/08/01 05:02:00;;;;;;;1.08;0.98;;;;;;;-143.85;100.00;70650.75;5094913;28;20026;-84
2022/08/01 05:04:25;;;;;;;1.75;1.02;;;;;;;-143.85;100.00;70650.75;5094632;28;20024;-84
2022/08/01 05:06:50;;;;;;;0.82;0.77;;;;;;;-143.85;100.00;70650.75;5093247;28;20027;-84
2022/08/01 05:09:16;;;;;;;0.85;0.85;;;;;;;-143.85;100.00;70650.75;5094472;28;20541;-84
2022/08/01 05:11:41;;;;;;;5.55;1.48;;;;;;;-143.85;100.00;70650.75;5093323;28;20031;-84
2022/08/01 05:14:07;;;;;;;0.95;0.70;;;;;;;-143.85;100.00;70650.75;5093213;28;20055;-84
2022/08/01 05:16:32;;;;;;;1.20;0.80;;;;;;;-143.85;100.00;70650.75;5093533;28;20116;-84
2022/08/01 05:18:57;;;;;;;1.00;0.73;;;;;;;-143.85;100.00;70650.75;5094342;28;20474;-84
2022/08/01 05:21:23;;;;;;;0.52;0.52;;;;;;;-143.85;100.00;70650.75;5093124;28;20020;-83
2022/08/01 05:23:48;;;;;;;0.70;0.70;;;;;;;-143.85;100.00;70650.75;5092874;28;20027;-84
2022/08/01 05:26:14;;;;;;;1.23;0.75;;;;;;;-143.85;100.00;70650.75;5093395;28;20383;-84
2022/08/01 05:28:39;;;;;;;0.75;0.40;;;;;;;-143.85;100.00;70650.75;5092574;28;20395;-85
2022/08/01 05:31:05;;;;;;;0.93;0.75;;;;;;;-143.85;100.00;70650.75;5094378;28;20034;-84
2022/08/01 05:33:30;;;;;;;1.02;0.82;;;;;;;-143.85;100.00;70650.75;5092629;28;20017;-84
2022/08/01 05:35:56;;;;;;;0.68;0.60;;;;;;;-143.85;100.00;70650.75;5092659;28;20020;-84
2022/08/01 05:38:21;;;;;;;1.30;0.90;;;;;;;-143.85;100.00;70650.75;5092645;28;20536;-85
2022/08/01 05:40:47;;;;;;;0.82;0.63;;;;;;;-143.85;100.00;70650.75;5092263;28;20016;-85
2022/08/01 05:43:12;;;;;;;0.65;0.60;;;;;;;-143.85;100.00;70650.75;5092587;28;20035;-85
2022/08/01 05:45:37;;;;;;;3.83;1.30;;;;;;;-143.85;100.00;70650.75;5092648;28;20103;-86
2022/08/01 05:48:03;;;;;;;1.05;0.60;;;;;;;-143.85;100.00;70650.75;5092109;28;20422;-84
2022/08/01 05:50:28;;;;;;;0.93;0.80;;;;;;;-143.85;100.00;70650.75;5092420;28;20395;-85
2022/08/01 05:52:54;;;;;;;0.50;0.50;;;;;;;-143.85;100.00;70650.75;5091582;28;20042;-83
2022/08/01 05:55:19;;;;;;;0.90;0.70;;;;;;;-143.85;100.00;70650.75;5091833;28;20028;-84
2022/08/01 05:57:45;;;;;;;0.55;0.55;;;;;;;-143.85;100.00;70650.75;5092163;28;20035;-85
2022/08/01 06:00:12;;;;;;;1.40;0.75;;;;;;;-143.85;100.00;70650.75;5092663;28;20020;-85
2022/08/01 06:02:42;;;;;;;;;;;;;;;-143.85;100.00;70650.75;5092538;28;20024;-85
2022/08/01 06:05:07;;;;;;;0.60;0.45;;;;;;;-143.85;100.00;70650.75;5092318;28;20278;-84
2022/08/01 06:07:33;;;;;;;0.93;0.93;;;;;;;-143.85;100.00;70650.75;5092359;28;20115;-85
2022/08/01 06:09:58;;;;;;;1.55;0.50;;;;;;;-143.85;100.00;70650.75;5092162;28;20020;-83
2022/08/01 06:12:24;;;;;;;1.40;0.70;;;;;;;-143.85;100.00;70650.75;5093710;28;20387;-86
2022/08/01 06:14:49;;;;;;;2.25;0.88;;;;;;;-143.85;100.00;70650.75;5092348;28;20024;-85
2022/08/01 06:17:14;;;;;;;2.05;0.90;;;;;;;-143.85;100.00;70650.75;5092115;28;20027;-84
2022/08/01 06:19:40;;;;;;;0.50;0.50;;;;;;;-143.85;100.00;70650.75;5093174;28;20024;-84
2022/08/01 06:22:05;;;;;;;0.95;0.80;;;;;;;-143.85;100.00;70650.75;5092042;28;20039;-84
2022/08/01 06:24:31;;;;;;;0.65;0.50;;;;;;;-143.85;100.00;70650.75;5092291;28;20028;-85
2022/08/01 06:26:56;;;;;;;1.33;1.23;;;;;;;-143.85;100.00;70650.75;5093382;28;20379;-87
2022/08/01 06:29:21;;;;;;;1.77;1.50;;;;;;;-143.85;100.00;70650.75;5092429;28;20027;-87
2022/08/01 06:31:47;;;;;;;1.88;0.90;;;;;;;-143.85;100.00;70650.75;5091894;28;20456;-85
2022/08/01 06:34:12;;;;;;;0.73;0.70;;;;;;;-143.85;100.00;70650.75;5091940;28;20464;-86
2022/08/01 06:36:38;;;;;;;2.72;0.98;;;;;;;-143.85;100.00;70650.75;5091761;28;20483;-85
2022/08/01 06:39:03;;;;;;;0.80;0.75;;;;;;;-143.85;100.00;70650.75;5091858;28;20028;-85
2022/08/01 06:41:29;;;;;;;1.08;0.70;;;;;;;-143.85;100.00;70650.75;5091964;28;20028;-85
2022/08/01 06:43:54;;;;;;;0.68;0.60;;;;;;;-143.85;100.00;70650.75;5091865;28;20032;-85
2022/08/01 06:46:20;;;;;;;2.05;0.90;;;;;;;-143.85;100.00;70650.75;5092164;28;20016;-84
2022/08/01 06:48:45;;;;;;;0.68;0.68;;;;;;;-143.85;100.00;70650.75;5091202;28;20050;-85
2022/08/01 06:51:15;;;;;;;1.08;0.47;;;;;;;-143.85;100.00;70650.75;5091636;28;20379;-86
2022/08/01 06:53:40;;;;;;;1.17;0.70;;;;;;;-143.85;100.00;70650.75;5091617;28;20020;-83
2022/08/01 06:56:08;;;;;;;1.65;0.90;;;;;;;-143.85;100.00;70650.75;5091770;28;20027;-90
2022/08/01 06:58:34;;;;;;;1.10;1.00;;;;;;;-143.85;100.00;70650.75;5091771;28;20028;-87
2022/08/01 07:01:00;;;;;;;7.32;1.10;;;;;;;-143.85;100.00;70650.75;5092883;28;20498;-87
2022/08/01 07:03:26;;;;;;;0.73;0.73;;;;;;;-143.85;100.00;70650.75;5092560;28;20035;-87
2022/08/01 07:05:52;;;;;;;2.05;1.58;;;;;;;-143.85;100.00;70650.75;5096035;28;20027;-89
2022/08/01 07:08:18;;;;;;;1.05;0.93;;;;;;;-143.85;100.00;70650.75;5096108;28;20025;-89
2022/08/01 07:10:43;;;;;;;4.53;1.00;;;;;;;-143.85;100.00;70650.75;5096744;28;20015;-89
2022/08/01 07:13:09;;;;;;;0.70;0.70;;;;;;;-143.85;100.00;70650.75;5096231;28;20127;-88
2022/08/01 07:15:34;;;;;;;0.70;0.60;;;;;;;-143.85;100.00;70650.75;5096077;28;20020;-89
2022/08/01 07:18:03;;;;;;;1.42;0.80;;;;;;;-143.85;100.00;70650.75;5096906;28;20115;-88
2022/08/01 07:20:29;;;;;;;0.60;0.60;;;;;;;-143.85;100.00;70650.75;5095827;28;20099;-89
2022/08/01 07:22:54;;;;;;;0.80;0.77;;;;;;;-143.85;100.00;70650.75;5095971;28;20054;-92
2022/08/01 07:25:20;;;;;;;0.80;0.80;;;;;;;-143.85;100.00;70650.75;5095739;28;20020;-88
2022/08/01 07:27:45;;;;;;;1.75;0.60;;;;;;;-143.85;100.00;70650.75;5095822;28;20020;-91
2022/08/01 07:30:11;;;;;;;1.13;0.95;;;;;;;-143.85;100.00;70650.75;5095767;28;20024;-88
2022/08/01 07:32:37;;;;;;;0.85;0.65;;;;;;;-143.85;100.00;70650.75;5095665;28;20028;-91
2022/08/01 07:35:03;;;;;;;3.58;1.50;;;;;;;-143.85;100.00;70650.75;5095658;28;20027;-89
2022/08/01 07:37:29;;;;;;;0.90;0.90;;;;;;;-143.85;100.00;70650.75;5095640;28;20024;-89
2022/08/01 07:39:54;;;;;;;0.77;0.77;;;;;;;-143.85;100.00;70650.75;5097029;28;20019;-91
2022/08/01 07:42:19;;;;;;;1.48;1.02;;;;;;;-143.85;100.00;70650.75;5095757;28;20024;-91
2022/08/01 07:44:45;;;;;;;0.90;0.90;;;;;;;-143.85;100.00;70650.75;5095453;28;20027;-90
2022/08/01 07:47:10;;;;;;;1.02;0.80;;;;;;;-143.85;100.00;70650.75;5095115;28;20043;-87
2022/08/01 07:49:36;;;;;;;1.02;0.93;;;;;;;-143.85;100.00;70650.75;5095357;28;20214;-88
2022/08/01 07:52:02;;;;;;;0.70;0.68;;;;;;;-143.85;100.00;70650.75;5095404;28;20021;-91
2022/08/01 07:54:28;;;;;;;1.60;0.73;;;;;;;-143.85;100.00;70650.75;5095556;28;20023;-89
2022/08/01 07:56:55;;;;;;;2.88;0.70;;;;;;;-143.85;100.00;70650.75;5096423;28;20368;-86
2022/08/01 07:59:22;;;;;;;1.80;1.00;;;;;;;-143.85;100.00;70650.75;5096272;28;20443;-89
2022/08/01 08:01:50;;;;;;;0.85;0.85;;;;;;;-143.85;100.00;70650.75;5095254;28;20111;-87
2022/08/01 08:04:15;;;;;;;;;;;;;;;-143.85;100.00;70650.75;5095539;28;20102;-89
2022/08/01 08:06:41;;;;;;;0.93;0.90;;;;;;;-143.85;100.00;70650.75;5095135;28;19943;-87
2022/08/01 08:09:06;;;;;;;1.23;0.70;;;;;;;-143.85;100.00;70650.75;5094953;28;20085;-88
2022/08/01 08:11:32;;;;;;;1.33;0.80;;;;;;;-143.85;100.00;70650.75;5094409;28;20039;-89
2022/08/01 08:13:57;;;;;;;0.98;0.93;;;;;;;-143.85;100.00;70650.75;5095817;28;20055;-87
2022/08/01 08:16:23;;;;;;;2.65;0.98;;;;;;;-143.85;100.00;70650.75;5094186;28;20036;-88
2022/08/01 08:18:48;;;;;;;0.82;0.80;;;;;;;-143.85;100.00;70650.75;5094948;28;20027;-88
2022/08/01 08:21:14;;;;;;;0.85;0.65;;;;;;;-143.85;100.00;70650.75;5094957;28;20479;-86
2022/08/01 08:26:24;;;;;;;4.25;0.85;;;;;;;-143.85;100.00;70650.75;5096243;28;20441;-88
2022/08/01 08:28:49;;;;;;;1.13;0.82;;;;;;;-143.85;100.00;70650.75;5094740;28;20473;-90
2022/08/01 08:31:15;;;;;;;4.95;1.30;;;;;;;-143.85;100.00;70650.75;5094665;28;20111;-88
2022/08/01 08:33:40;;;;;;;0.95;0.60;;;;;;;-143.85;100.00;70650.75;5094634;28;20479;-89
2022/08/01 08:36:05;;;;;;;0.60;0.55;;;;;;;-143.85;100.00;70650.75;5094568;28;20024;-85
2022/08/01 08:38:31;;;;;;;0.70;0.70;;;;;;;-143.85;100.00;70650.75;5094465;28;20024;-88
2022/08/01 08:40:57;;;;;;;1.08;0.90;;;;;;;-143.85;100.00;70650.75;5094710;28;20031;-90
2022/08/01 08:43:24;;;;;;;0.70;0.70;;;;;;;-143.85;100.00;70650.75;5094149;28;20028;-91
2022/08/01 08:45:50;;;;;;;1.80;1.02;;;;;;;-143.85;100.00;70650.75;5094489;28;20510;-89
2022/08/01 08:48:17;;;;;;;2.42;0.90;;;;;;;-143.85;100.00;70650.75;5093912;28;20040;-90
2022/08/01 08:50:45;;;;;;;0.98;0.65;;;;;;;-143.85;100.00;70650.75;5094800;28;20024;-89
2022/08/01 08:53:13;;;;;;;1.00;0.65;;;;;;;-143.85;100.00;70650.75;5094141;28;20038;-92
2022/08/01 08:55:42;;;;;;;1.02;1.02;;;;;;;-143.85;100.00;70650.75;5094179;28;20024;-88
2022/08/01 08:58:12;;;;;;;1.30;1.20;;;;;;;-143.85;100.00;70650.75;5095302;28;20051;-89
2022/08/01 09:00:39;;;;;;;0.68;0.68;;;;;;;-143.85;100.00;70650.75;5094084;28;20031;-87
2022/08/01 09:03:04;;;;;;;0.60;0.60;;;;;;;-143.85;100.00;70650.75;5094087;28;20020;-89
2022/08/01 09:05:30;;;;;;;0.73;0.73;;;;;;;-143.85;100.00;70650.75;5094068;28;20114;-87
2022/08/01 09:07:55;;;;;;;0.70;0.60;;;;;;;-143.85;100.00;70650.75;5093862;28;20445;-87
2022/08/01 09:10:21;;;;;;;0.68;0.52;;;;;;;-143.85;100.00;70650.75;5094509;28;20023;-91
2022/08/01 09:13:03;;;;;;;6.15;0.80;;;;;;;-143.85;100.00;70650.75;5093470;28;20023;-88
2022/08/01 09:15:45;;;;;;;0.50;0.50;;;;;;;-143.85;100.00;70650.75;5084743;28;20024;-88
2022/08/01 09:18:29;;;;;;;0.73;0.73;;;;;;;-143.85;100.00;70650.75;5094798;28;20027;-88
2022/08/01 09:21:25;;;;;;;1.20;1.10;;;;;;;-143.85;100.00;70650.75;5093931;28;20017;-88
2022/08/01 09:23:52;;;;;;;1.58;1.27;;;;;;;-143.85;100.00;70650.75;5072772;28;20028;-88
2022/08/01 09:26:19;;;;;;;;;;;;;;;-143.85;100.00;70650.75;5093836;28;20070;-90
2022/08/01 09:28:46;;;;;;;1.00;0.90;;;;;;;-143.85;100.00;70650.75;5093730;28;19908;-88
2022/08/01 09:31:17;;;;;;;1.02;0.65;;;;;;;-143.85;100.00;70650.75;5092880;28;20114;-80
2022/08/01 09:33:57;;;;;;;3.13;0.80;;;;;;;-143.85;100.00;70650.75;5092498;28;20062;-79
2022/08/01 09:36:44;;;;;;;0.63;0.63;;;;;;;-143.85;100.00;70650.75;5093711;28;20028;-77
2022/08/01 09:39:15;;;;;;;0.77;0.57;;;;;;;-143.85;100.00;70650.75;5094088;28;20367;-79
2022/08/01 09:41:41;;;;;;;1.63;0.82;;;;;;;-143.85;100.00;70650.75;5093533;28;20498;-80
2022/08/01 09:44:06;;;;;;;0.70;0.70;;;;;;;-143.85;100.00;70650.75;5092080;28;20020;-81
2022/08/01 09:46:32;;;;;;;0.73;0.73;;;;;;;-143.85;100.00;70650.75;5091899;28;20028;-80
2022/08/01 09:49:02;;;;;;;0.85;0.70;;;;;;;-143.85;100.00;70650.75;5092224;28;20115;-80
2022/08/01 09:51:38;;;;;;;1.02;0.90;;;;;;;-143.85;100.00;70650.75;5092173;28;20027;-80
2022/08/01 09:54:05;;;;;;;1.02;0.65;;;;;;;-143.85;100.00;70650.75;5093061;28;20020;-79
2022/08/01 09:56:42;;;;;;;0.40;0.40;;;;;;;-143.85;100.00;70650.75;5091460;28;20418;-80
2022/08/01 09:59:09;;;;;;;;;;;;;;;-143.85;100.00;70650.75;5092707;28;20387;-80
2022/08/01 10:01:50;;;;;;;1.65;0.85;;;;;;;-143.85;100.00;70650.75;5092189;28;20041;-81
2022/08/01 10:04:15;;;;;;;0.90;0.90;;;;;;;-143.85;100.00;70650.75;5091983;28;20108;-82
2022/08/01 10:06:43;;;;;;;1.55;0.70;;;;;;;-143.85;100.00;70650.75;5091936;28;20058;-82
2022/08/01 10:09:10;;;;;;;1.10;0.80;;;;;;;-143.85;100.00;70650.75;5091764;28;20020;-80
2022/08/01 10:11:38;;;;;;;1.20;0.90;;;;;;;-143.85;100.00;70650.75;5091662;28;20089;-80
2022/08/01 10:14:05;;;;;;;0.57;0.55;;;;;;;-143.85;100.00;70650.75;5091836;28;20117;-80
2022/08/01 10:16:32;;;;;;;1.08;0.98;;;;;;;-143.85;100.00;70650.75;5093286;28;20023;-82
2022/08/01 10:18:58;;;;;;;3.37;1.40;;;;;;;-143.85;100.00;70650.75;5091833;28;20032;-83
2022/08/01 10:21:27;;;;;;;0.85;0.60;;;;;;;-143.85;100.00;70650.75;5091581;28;20261;-81
2022/08/01 10:23:55;;;;;;;5.35;1.10;;;;;;;-143.85;100.00;70650.75;5091647;28;20364;-80
2022/08/01 10:26:22;;;;;;;0.90;0.90;;;;;;;-143.85;100.00;70650.75;5091574;28;20111;-81
2022/08/01 10:28:48;;;;;;;0.68;0.68;;;;;;;-143.85;100.00;70650.75;5091269;28;20071;-81
2022/08/01 10:31:16;;;;;;;1.88;1.10;;;;;;;-143.85;100.00;70650.75;5092425;28;20031;-80
2022/08/01 10:33:42;;;;;;;1.10;0.90;;;;;;;-143.85;100.00;70650.75;5091450;28;20028;-80
2022/08/01 10:36:10;;;;;;;0.70;0.70;;;;;;;-143.85;100.00;70650.75;5092056;28;20370;-81
2022/08/01 10:38:37;;;;;;;1.90;1.00;;;;;;;-143.85;100.00;70650.75;5091032;28;20403;-80
2022/08/01 10:41:03;;;;;;;2.55;0.90;;;;;;;-143.85;100.00;70650.75;5091092;28;20032;-80
2022/08/01 10:43:29;;;;;;;0.88;0.88;;;;;;;-143.85;100.00;70650.75;5091379;28;20020;-83
2022/08/01 10:45:55;;;;;;;0.80;0.80;;;;;;;-143.85;100.00;70650.75;5091386;28;20119;-82
2022/08/01 10:49:07;;;;;;;1.13;1.00;;;;;;;-143.85;100.00;70650.75;5091013;28;20448;-80
2022/08/01 10:51:38;;;;;;;1.50;1.20;;;;;;;-143.85;100.00;70650.75;5093575;28;20036;-81
2022/08/01 10:54:06;;;;;;;1.00;0.90;;;;;;;-143.85;100.00;70650.75;5092539;28;20024;-81
2022/08/01 10:56:50;;;;;;;1.73;1.10;;;;;;;-143.85;100.00;70650.75;5091256;28;20110;-80
2022/08/01 10:59:25;;;;;;;0.70;0.70;;;;;;;-143.85;100.00;70650.75;5091505;28;20024;-82
2022/08/01 11:02:02;;;;;;;2.85;1.38;;;;;;;-143.85;100.00;70650.75;5091578;28;20028;-82
2022/08/01 11:04:40;;;;;;;1.00;0.90;;;;;;;-143.85;100.00;70650.75;5091124;28;20035;-80
2022/08/01 11:07:07;;;;;;;1.02;0.93;;;;;;;-143.85;100.00;70650.75;5091024;28;20024;-80
2022/08/01 11:09:45;;;;;;;1.30;0.90;;;;;;;-143.85;100.00;70650.75;5091125;28;20040;-82
2022/08/01 11:12:11;;;;;;;;;;;;;;;-143.85;100.00;70650.75;5091534;28;20030;-81
2022/08/01 11:14:59;;;;;;;1.13;0.77;;;;;;;-143.85;100.00;70650.75;5091144;28;19947;-79
2022/08/01 11:17:47;;;;;;;1.40;1.30;;;;;;;-143.85;100.00;70650.75;5091026;28;20266;-82
2022/08/01 11:20:17;;;;;;;1.25;0.90;;;;;;;-143.85;100.00;70650.75;5082459;28;20047;-81
2022/08/01 11:23:01;;;;;;;0.80;0.80;;;;;;;-143.85;100.00;70650.75;5091559;28;20024;-81